< < Back
Terminal Aerodrome Forecast


Current Version              Previous Versions:   1  2  3  4  5  6  7  8  9  

Terminal Aerodrome Forecast

510
FTUS44 KOHX 211700
TAFCSV
TAF
KCSV 211723Z 2118/2218 30010KT P6SM SCT030
     FM220000 00000KT P6SM SKC=

Latest METAR

802
SAUS70 KWBC 211800 RRI
MTRCSV
METAR KCSV 211753Z AUTO 29008KT 10SM FEW033 29/20 A3023 RMK AO2 SLP213
T02890200 10294 20194 50003


USA.gov is the U.S. government's official web portal to all federal, state and local government web resources and services.